FW4343 Weather Reports


Display with metric or nautical units.
time (UTC)temp
F
wind
direction
speed
MPH
gust
MPH
rain 1hr
in
rain 24hr
in
rain mn
in
humidity
%
barometer
mb
20191020235844 40 357 4.0 12.0 0.00 0.04 0.00 87 1023.2
20191020235348 40 349 6.0 12.0 0.00 0.04 0.00 87 1023.2
20191020234836 40 358 6.0 11.0 0.00 0.04 0.00 87 1023.2
20191020234350 40 345 9.0 10.0 0.00 0.04 0.00 87 1023.0
20191020233835 40 360 7.0 9.0 0.00 0.04 0.00 87 1023.1
20191020233352 40 350 8.0 10.0 0.00 0.04 0.00 88 1023.2
20191020232844 40 351 7.0 9.0 0.00 0.04 0.00 88 1023.1
20191020232349 40 358 8.0 10.0 0.00 0.04 0.00 88 1023.1
20191020231842 40 360 8.0 10.0 0.00 0.04 0.00 88 1023.1
20191020231356 39 353 5.0 7.0 0.00 0.04 0.00 88 1023.1
20191020230837 39 353 3.0 7.0 0.00 0.04 0.00 88 1023.1
20191020230352 39 353 3.0 7.0 0.00 0.04 0.00 87 1023.0
20191020225850 39 356 3.0 9.0 0.00 0.04 0.01 88 1022.9
20191020225339 39 355 6.0 6.0 0.00 0.04 0.01 87 1022.9
20191020224834 39 351 3.0 4.0 0.00 0.04 0.01 87 1022.8
20191020224350 39 353 2.0 5.0 0.00 0.04 0.01 87 1022.8
20191020223840 39 353 1.0 7.0 0.00 0.04 0.01 86 1022.8
20191020223352 39 354 5.0 8.0 0.00 0.04 0.01 86 1022.8
20191020222851 40 354 6.0 8.0 0.00 0.04 0.01 86 1022.7
20191020222342 40 353 6.0 7.0 0.00 0.04 0.01 86 1022.7
20191020221845 40 352 6.0 8.0 0.00 0.04 0.01 86 1022.7
20191020221345 40 356 5.0 7.0 0.00 0.04 0.01 85 1022.6
20191020220853 40 355 6.0 10.0 0.00 0.04 0.01 85 1022.5
20191020220342 40 343 6.0 10.0 0.00 0.04 0.01 85 1022.5
20191020215837 40 355 7.0 11.0 0.00 0.04 0.01 85 1022.5
20191020215334 40 360 7.0 11.0 0.00 0.04 0.01 86 1022.4
20191020214848 40 347 7.0 9.0 0.00 0.04 0.01 86 1022.4
20191020214338 40 356 4.0 9.0 0.00 0.04 0.01 86 1022.3
20191020213852 40 355 7.0 9.0 0.00 0.04 0.01 86 1022.2
20191020213338 40 353 6.0 9.0 0.00 0.04 0.01 86 1022.2
20191020212850 40 358 6.0 10.0 0.00 0.04 0.01 87 1022.1
20191020212340 40 354 5.0 7.0 0.00 0.04 0.01 87 1022.0
20191020211846 40 354 5.0 9.0 0.00 0.04 0.01 87 1021.9
20191020211340 40 355 4.0 8.0 0.00 0.04 0.01 87 1022.0
20191020210850 40 355 2.0 4.0 0.00 0.04 0.01 86 1022.0
20191020210338 40 358 2.0 8.0 0.00 0.04 0.01 86 1021.9
20191020205834 40 351 4.0 8.0 0.00 0.04 0.01 86 1021.9
20191020205342 41 355 327.0 327.0 0.00 0.01 0.01 85 1021.7
20191020204837 41 358 6.0 11.0 0.00 0.04 0.01 86 1021.7
20191020204347 41 355 7.0 12.0 0.00 0.04 0.01 86 1021.6
20191020203844 41 343 6.0 9.0 0.00 0.04 0.01 86 1021.6
20191020203335 41 356 6.0 10.0 0.00 0.04 0.01 86 1021.6
20191020202835 41 353 7.0 8.0 0.00 0.04 0.01 86 1021.6
20191020202348 41 351 7.0 9.0 0.00 0.04 0.01 86 1021.6
20191020201840 41 360 6.0 9.0 0.00 0.04 0.01 85 1021.5
20191020201346 41 350 7.0 9.0 0.00 0.04 0.01 85 1021.4
20191020200840 42 359 7.0 9.0 0.00 0.04 0.01 85 1021.5
20191020200334 42 355 7.0 10.0 0.00 0.04 0.01 85 1021.5
20191020195843 42 355 7.0 9.0 0.00 0.04 0.01 84 1021.4
20191020195338 42 351 7.0 10.0 0.00 0.04 0.01 84 1021.4
20191020194838 42 351 8.0 10.0 0.00 0.04 0.01 84 1021.3
20191020194334 42 360 8.0 11.0 0.00 0.04 0.01 84 1021.2
20191020193846 42 4 7.0 10.0 0.00 0.04 0.01 84 1021.2
20191020193336 42 355 8.0 11.0 0.00 0.04 0.01 84 1021.0
20191020192834 42 347 9.0 11.0 0.00 0.04 0.01 84 1020.9
20191020192347 42 356 8.0 10.0 0.00 0.04 0.01 84 1020.8
20191020191841 43 353 9.0 11.0 0.00 0.04 0.01 84 1020.9
20191020191337 43 357 8.0 9.0 0.00 0.04 0.01 84 1020.7
20191020190850 43 360 8.0 11.0 0.00 0.04 0.01 83 1020.8
20191020190348 43 3 7.0 9.0 0.00 0.04 0.01 83 1020.7
20191020185840 43 355 7.0 10.0 0.00 0.04 0.01 84 1020.7
20191020185349 43 352 8.0 10.0 0.00 0.04 0.01 83 1020.7
20191020184844 43 350 8.0 12.0 0.00 0.04 0.01 83 1020.8
20191020184340 43 342 10.0 12.0 0.00 0.04 0.01 84 1020.7
20191020183852 43 355 8.0 11.0 0.00 0.04 0.01 84 1020.6
20191020183339 43 351 7.0 10.0 0.00 0.04 0.01 84 1020.6
20191020182849 43 348 5.0 9.0 0.00 0.04 0.01 84 1020.7
20191020182347 43 354 4.0 8.0 0.00 0.04 0.01 84 1020.6
20191020181837 43 353 5.0 8.0 0.00 0.04 0.01 84 1020.5
20191020181346 43 347 6.0 9.0 0.00 0.04 0.01 84 1020.4
20191020180839 43 2 5.0 7.0 0.00 0.04 0.01 84 1020.5
20191020180353 44 360 5.0 8.0 0.00 0.04 0.01 84 1020.3
20191020175836 44 354 6.0 8.0 0.00 0.04 0.01 83 1020.3
20191020175334 44 353 5.0 7.0 0.00 0.04 0.01 83 1020.2
20191020174852 44 353 4.0 7.0 0.00 0.04 0.01 82 1020.1
20191020174340 44 355 5.0 7.0 0.00 0.04 0.01 82 1020.1
20191020173837 45 350 5.0 8.0 0.00 0.04 0.01 81 1020.0
20191020173351 45 355 6.0 8.0 0.00 0.04 0.01 80 1019.9
20191020172837 46 353 6.0 8.0 0.00 0.04 0.01 79 1019.9
20191020172349 46 360 6.0 10.0 0.00 0.04 0.01 79 1019.9
20191020171837 47 357 5.0 10.0 0.00 0.04 0.01 78 1019.8
20191020171354 47 360 6.0 9.0 0.00 0.04 0.01 78 1019.7
20191020170850 47 4 6.0 9.0 0.00 0.04 0.01 77 1019.7
20191020170338 47 1 6.0 9.0 0.00 0.04 0.01 77 1019.7
20191020165854 47 360 7.0 9.0 0.00 0.04 0.01 76 1019.6
20191020165344 48 4 4.0 10.0 0.00 0.04 0.01 75 1019.5
20191020164844 48 353 6.0 10.0 0.00 0.04 0.01 74 1019.4
20191020164343 48 356 7.0 12.0 0.00 0.04 0.01 73 1019.3
20191020163843 49 357 7.0 12.0 0.00 0.04 0.01 73 1019.2
20191020163340 49 5 9.0 17.0 0.00 0.04 0.01 72 1019.1
20191020162849 50 8 10.0 17.0 0.00 0.04 0.01 72 1019.1
20191020162342 50 8 12.0 17.0 0.00 0.04 0.01 72 1019.0
20191020161852 50 4 13.0 19.0 0.00 0.04 0.01 71 1019.0
20191020161339 51 2 9.0 15.0 0.00 0.04 0.01 72 1019.0
20191020160851 51 345 8.0 15.0 0.00 0.04 0.01 72 1018.9
20191020160343 51 359 7.0 15.0 0.00 0.04 0.01 72 1018.9
20191020155833 51 340 10.0 16.0 0.00 0.51 0.01 72 1018.9
20191020155352 51 353 11.0 15.0 0.00 0.51 0.01 72 1018.9
20191020154838 51 360 9.0 16.0 0.00 0.51 0.01 72 1018.9
20191020154340 51 6 11.0 16.0 0.00 0.51 0.01 71 1018.8
20191020153856 51 356 11.0 15.0 0.00 0.51 0.01 71 1018.8
20191020153347 51 343 10.0 16.0 0.00 0.51 0.01 71 1018.7
20191020152837 51 351 11.0 16.0 0.00 0.51 0.01 71 1018.7
20191020152342 51 349 13.0 19.0 0.00 0.51 0.01 70 1018.6
20191020151840 51 345 12.0 18.0 0.00 0.51 0.01 71 1018.6
20191020151338 51 11 11.0 18.0 0.00 0.51 0.01 71 1018.5
20191020150838 51 351 11.0 17.0 0.00 0.51 0.01 72 1018.6
20191020150337 51 347 12.0 17.0 0.00 0.51 0.01 73 1018.5
20191020145847 51 13 10.0 17.0 0.00 0.51 0.01 73 1018.5
20191020145353 51 358 8.0 11.0 0.00 0.51 0.01 71 1018.3
20191020144851 50 351 8.0 12.0 0.00 0.51 0.01 71 1018.3
20191020144342 51 352 9.0 12.0 0.00 0.51 0.01 70 1018.3
20191020143838 51 347 8.0 14.0 0.00 0.51 0.01 72 1018.2
20191020143350 51 353 9.0 17.0 0.00 0.51 0.01 71 1018.2
20191020142840 51 2 12.0 17.0 0.00 0.51 0.01 70 1018.2
20191020142355 52 18 13.0 20.0 0.00 0.51 0.01 71 1018.1
20191020141847 51 351 14.0 20.0 0.00 0.51 0.01 72 1018.2
20191020141340 51 360 10.0 16.0 0.00 0.51 0.01 73 1018.2
20191020140854 51 8 10.0 16.0 0.00 0.51 0.01 74 1018.2
20191020140346 51 8 10.0 17.0 0.00 0.51 0.01 73 1018.2
20191020135858 52 353 11.0 17.0 0.00 0.51 0.01 72 1018.2
20191020135348 52 14 11.0 17.0 0.00 0.51 0.01 74 1018.1
20191020134838 51 353 10.0 15.0 0.00 0.51 0.01 74 1018.1
20191020134336 52 360 10.0 16.0 0.00 0.51 0.01 73 1018.1
20191020133848 51 2 8.0 15.0 0.00 0.51 0.01 74 1018.1
20191020133338 51 343 9.0 16.0 0.00 0.51 0.01 75 1018.0
20191020132846 50 347 11.0 16.0 0.00 0.51 0.01 76 1017.9
20191020132340 50 349 9.0 16.0 0.00 0.51 0.01 75 1017.9
20191020131850 51 354 10.0 16.0 0.00 0.51 0.01 74 1017.9
20191020131337 51 345 10.0 15.0 0.00 0.51 0.01 74 1017.8
20191020130852 51 9 13.0 23.0 0.00 0.51 0.01 74 1017.9
20191020130333 51 360 14.0 23.0 0.00 0.51 0.01 73 1017.8
20191020125847 51 2 12.0 19.0 0.00 0.51 0.01 76 1017.9
20191020125339 50 354 14.0 18.0 0.00 0.51 0.01 75 1017.9
20191020124851 51 9 12.0 19.0 0.00 0.51 0.01 75 1017.7
20191020124337 50 337 16.0 23.0 0.00 0.51 0.01 76 1017.7
20191020123847 49 2 12.0 17.0 0.00 0.51 0.01 78 1017.7
20191020123336 49 357 13.0 17.0 0.00 0.51 0.01 78 1017.7
20191020122847 49 2 12.0 18.0 0.00 0.51 0.01 78 1017.6
20191020122344 49 353 12.0 21.0 0.00 0.51 0.01 78 1017.6
20191020121840 49 338 14.0 21.0 0.00 0.51 0.01 78 1017.5
20191020121348 49 347 15.0 21.0 0.00 0.51 0.01 77 1017.5
20191020120842 49 4 14.0 22.0 0.00 0.51 0.01 77 1017.4
20191020120333 49 355 13.0 18.0 0.00 0.51 0.01 77 1017.4
20191020115843 49 2 13.0 18.0 0.00 0.51 0.01 77 1017.4
20191020115337 49 344 13.0 18.0 0.00 0.51 0.01 78 1017.3
20191020114834 49 1 14.0 20.0 0.00 0.51 0.01 78 1017.4
20191020114339 50 357 12.0 18.0 0.00 0.51 0.01 77 1017.4
20191020113851 51 349 13.0 19.0 0.00 0.51 0.01 78 1017.4
20191020113337 50 359 11.0 16.0 0.00 0.51 0.01 79 1017.4
20191020112849 49 348 13.0 18.0 0.00 0.51 0.01 80 1017.5
20191020112343 49 7 13.0 18.0 0.00 0.51 0.01 79 1017.4
20191020111858 49 7 10.0 20.0 0.00 0.51 0.01 80 1017.3
20191020111348 50 350 11.0 21.0 0.00 0.51 0.01 78 1017.3
20191020110841 50 16 17.0 22.0 0.00 0.51 0.01 78 1017.1
20191020110356 50 12 13.0 22.0 0.00 0.51 0.01 79 1017.2
20191020105850 50 347 10.0 19.0 0.00 0.51 0.01 82 1017.2
20191020105342 49 8 12.0 19.0 0.00 0.51 0.01 80 1017.3
20191020104852 49 332 11.0 19.0 0.00 0.51 0.01 80 1017.2
20191020104344 50 4 12.0 19.0 0.00 0.51 0.01 81 1017.4
20191020103851 50 358 11.0 23.0 0.00 0.51 0.01 82 1017.2
20191020103339 50 344 15.0 23.0 0.00 0.51 0.01 83 1017.3
20191020102836 50 358 13.0 18.0 0.00 0.51 0.01 84 1017.2
20191020102350 49 2 13.0 18.0 0.00 0.51 0.01 83 1017.3
20191020101837 49 349 10.0 19.0 0.00 0.51 0.01 84 1017.2
20191020101351 49 339 11.0 19.0 0.00 0.51 0.01 84 1017.1
20191020100838 49 357 14.0 20.0 0.00 0.51 0.01 84 1017.0
20191020100343 49 6 14.0 19.0 0.00 0.51 0.01 85 1017.0
20191020095838 49 349 14.0 21.0 0.00 0.55 0.01 86 1017.0
20191020095333 49 338 11.0 18.0 0.00 0.55 0.01 88 1017.0
20191020094844 48 13 12.0 17.0 0.00 0.55 0.01 88 1017.0
20191020094337 48 356 12.0 17.0 0.00 0.55 0.01 89 1016.9
20191020093852 48 345 10.0 16.0 0.00 0.55 0.01 90 1017.0
20191020093338 48 360 10.0 17.0 0.00 0.55 0.01 91 1016.9
20191020092848 47 356 13.0 17.0 0.00 0.55 0.01 91 1016.8
20191020092340 47 359 9.0 17.0 0.00 0.55 0.01 92 1016.7
20191020091852 47 337 12.0 18.0 0.00 0.55 0.01 92 1016.5
20191020091341 47 341 11.0 16.0 0.00 0.55 0.01 93 1016.5
20191020090850 46 355 10.0 16.0 0.00 0.55 0.01 94 1016.4
20191020090354 46 1 9.0 14.0 0.00 0.55 0.01 94 1016.3
20191020085848 46 353 9.0 15.0 0.00 0.55 0.01 94 1016.3
20191020085342 45 355 6.0 10.0 0.00 0.55 0.01 94 1016.3
20191020084834 45 352 6.0 9.0 0.00 0.55 0.01 94 1016.3
20191020084348 45 354 4.0 8.0 0.00 0.55 0.01 95 1016.2
20191020083839 45 354 3.0 7.0 0.00 0.55 0.01 94 1016.2
20191020083346 44 2 4.0 7.0 0.00 0.55 0.01 94 1016.1
20191020082841 44 352 4.0 9.0 0.00 0.55 0.01 95 1016.0
20191020082338 44 352 6.0 8.0 0.00 0.55 0.01 94 1015.9
20191020081852 44 349 6.0 11.0 0.00 0.55 0.01 95 1015.9
20191020081341 44 358 8.0 11.0 0.00 0.55 0.01 94 1015.9
20191020080839 43 344 5.0 12.0 0.00 0.55 0.01 94 1015.7
20191020080346 43 359 6.0 11.0 0.00 0.55 0.01 94 1015.6
20191020075844 43 359 7.0 11.0 0.00 0.55 0.01 94 1015.5
20191020075336 43 349 6.0 10.0 0.00 0.55 0.01 94 1015.4
20191020074844 43 360 6.0 10.0 0.00 0.55 0.01 94 1015.3
20191020074338 43 356 6.0 10.0 0.00 0.55 0.01 94 1015.2
20191020073849 43 355 5.0 9.0 0.00 0.55 0.01 94 1015.1
20191020073341 43 353 5.0 8.0 0.00 0.55 0.01 94 1015.1
20191020072846 42 354 5.0 8.0 0.00 0.55 0.01 94 1014.9
20191020072349 42 355 4.0 8.0 0.00 0.55 0.01 94 1014.9
20191020071841 42 352 4.0 8.0 0.00 0.55 0.01 94 1014.8
20191020071353 42 359 4.0 7.0 0.00 0.55 0.01 94 1014.7
20191020070842 42 351 3.0 9.0 0.00 0.55 0.01 94 1014.7
20191020070341 42 358 4.0 9.0 0.00 0.55 0.01 94 1014.6
20191020065835 42 353 4.0 8.0 0.04 0.55 0.01 94 1014.6
20191020065344 42 342 4.0 7.0 0.04 0.55 0.01 94 1014.6
20191020064836 42 353 2.0 5.0 0.04 0.55 0.01 94 1014.5
20191020064352 42 342 2.0 5.0 0.04 0.55 0.01 94 1014.4
20191020063844 42 353 1.0 3.0 0.04 0.55 0.01 94 1014.4
20191020063338 42 358 0.0 6.0 0.04 0.55 0.01 94 1014.3
20191020062834 42 339 2.0 6.0 0.04 0.55 0.01 94 1014.3
20191020062342 42 347 0.0 3.0 0.04 0.55 0.01 94 1014.2
20191020061837 42 295 0.0 3.0 0.04 0.55 0.01 94 1014.1
20191020061333 42 353 1.0 3.0 0.04 0.55 0.01 94 1014.0
20191020060847 42 354 0.0 2.0 0.04 0.55 0.01 94 1014.0
20191020060336 42 354 0.0 2.0 0.04 0.55 0.01 94 1014.0
20191020055838 42 354 0.0 2.0 0.00 0.51 0.00 94 1013.9
20191020055344 43 354 0.0 2.0 0.00 0.51 0.00 94 1013.8
20191020054837 43 354 0.0 3.0 0.00 0.51 0.00 94 1013.7
20191020054338 43 355 1.0 5.0 0.00 0.51 0.00 94 1013.7
20191020053844 43 355 1.0 5.0 0.00 0.51 0.00 94 1013.5
20191020053337 43 349 0.0 2.0 0.00 0.51 0.00 94 1013.5
20191020052854 43 348 0.0 2.0 0.00 0.51 0.00 94 1013.4
20191020052347 43 348 0.0 3.0 0.00 0.51 0.00 94 1013.3
20191020051838 43 355 0.0 5.0 0.00 0.51 0.00 94 1013.2
20191020051350 43 352 1.0 5.0 0.00 0.51 0.00 94 1013.2
20191020050838 43 353 1.0 5.0 0.00 0.51 0.00 94 1013.1
20191020050334 43 358 1.0 6.0 0.00 0.51 0.00 94 1013.1
20191020045851 43 339 1.0 6.0 0.00 0.51 0.00 94 1013.0
20191020045345 43 343 0.0 3.0 0.00 0.51 0.00 94 1012.9
20191020044836 43 11 1.0 3.0 0.00 0.51 0.00 94 1012.9
20191020044335 43 349 0.0 3.0 0.00 0.51 0.00 94 1012.8
20191020043847 43 346 1.0 4.0 0.00 0.51 0.00 94 1012.8
20191020043343 43 320 1.0 7.0 0.00 0.51 0.00 94 1012.7
20191020042840 43 299 1.0 7.0 0.00 0.51 0.00 94 1012.7
20191020042350 44 360 1.0 2.0 0.00 0.51 0.00 94 1012.7
20191020041843 44 241 0.0 5.0 0.00 0.51 0.00 94 1012.6
20191020041341 44 345 1.0 5.0 0.00 0.51 0.00 94 1012.6
20191020040851 44 238 1.0 5.0 0.00 0.51 0.00 94 1012.5
20191020040346 44 252 1.0 4.0 0.00 0.51 0.00 94 1012.5
20191020035838 43 302 0.0 3.0 0.00 0.51 0.00 94 1012.4
20191020035344 43 343 0.0 6.0 0.00 0.51 0.00 94 1012.3
20191020034841 43 3 1.0 6.0 0.00 0.51 0.00 94 1012.3
20191020034350 43 6 1.0 5.0 0.00 0.51 0.00 94 1012.2
20191020033837 43 260 0.0 2.0 0.00 0.51 0.00 94 1012.1
20191020033355 43 260 0.0 5.0 0.00 0.51 0.00 93 1012.1
20191020032847 43 348 1.0 5.0 0.00 0.51 0.00 94 1012.1
20191020032337 43 333 0.0 3.0 0.00 0.51 0.00 93 1012.0
20191020031855 43 285 0.0 3.0 0.00 0.51 0.00 94 1011.9
20191020031342 43 358 0.0 3.0 0.00 0.51 0.00 94 1011.9
20191020030834 43 358 0.0 2.0 0.00 0.51 0.00 94 1011.8
20191020030352 43 358 0.0 2.0 0.00 0.51 0.00 94 1011.8
20191020025848 43 358 0.0 3.0 0.00 0.51 0.00 93 1011.7
20191020025357 43 358 0.0 3.0 0.00 0.51 0.00 93 1011.7
20191020024850 43 274 0.0 2.0 0.00 0.51 0.00 93 1011.6
20191020024339 43 274 0.0 2.0 0.00 0.51 0.00 93 1011.6
20191020023834 43 274 0.0 2.0 0.00 0.51 0.00 93 1011.6
20191020023353 43 268 0.0 3.0 0.00 0.51 0.00 93 1011.6
20191020022842 43 258 1.0 3.0 0.00 0.51 0.00 93 1011.6
20191020022351 43 319 0.0 2.0 0.00 0.51 0.00 93 1011.5
20191020021848 43 301 0.0 4.0 0.00 0.51 0.00 93 1011.4
20191020021341 43 349 0.0 4.0 0.00 0.51 0.00 93 1011.3
20191020020852 43 349 0.0 2.0 0.00 0.51 0.00 93 1011.3
20191020020349 43 348 0.0 2.0 0.00 0.51 0.00 93 1011.2
20191020015844 42 348 0.0 4.0 0.00 0.51 0.00 93 1011.3
20191020015339 43 349 0.0 4.0 0.00 0.51 0.00 93 1011.2
20191020014838 42 349 0.0 5.0 0.00 0.51 0.00 93 1011.1
20191020014350 42 13 0.0 5.0 0.00 0.51 0.00 93 1011.1
20191020013839 42 247 1.0 5.0 0.00 0.51 0.00 93 1011.1
20191020013347 42 229 0.0 3.0 0.00 0.51 0.00 93 1011.1
20191020012841 42 229 0.0 3.0 0.00 0.51 0.00 93 1011.1
20191020012354 42 262 0.0 3.0 0.00 0.51 0.00 93 1011.1
20191020011846 42 299 0.0 2.0 0.00 0.51 0.00 93 1011.0
20191020011356 42 274 0.0 3.0 0.00 0.51 0.00 93 1011.0
20191020010844 42 7 0.0 3.0 0.00 0.51 0.00 93 1011.0
20191020010338 42 237 0.0 4.0 0.00 0.51 0.00 93 1011.0
20191020005851 42 237 0.0 4.0 0.00 0.55 0.00 93 1011.0
20191020005343 42 345 0.0 4.0 0.00 0.55 0.00 93 1011.0
20191020004845 42 19 1.0 4.0 0.00 0.55 0.00 93 1010.9
20191020004351 42 309 0.0 2.0 0.00 0.55 0.00 93 1010.8
20191020003839 42 334 0.0 2.0 0.00 0.55 0.00 93 1010.8
20191020003352 42 14 0.0 3.0 0.00 0.55 0.00 93 1010.7
20191020002844 42 313 0.0 3.0 0.00 0.55 0.00 93 1010.7
20191020002354 42 324 0.0 4.0 0.00 0.55 0.00 93 1010.6
20191020001854 42 9 1.0 4.0 0.00 0.55 0.00 92 1010.6
20191020001349 42 10 0.0 3.0 0.00 0.55 0.00 92 1010.5
20191020000836 42 327 0.0 3.0 0.00 0.55 0.00 92 1010.5
20191020000333 42 293 0.0 4.0 0.00 0.55 0.00 92 1010.5